createdAt,value
2023-03-02T00:00:11.565Z,55.90
2023-03-02T00:05:16.369Z,56.00
2023-03-02T00:10:19.905Z,56.00
2023-03-02T00:15:23.334Z,56.00
2023-03-02T00:20:29.137Z,56.10
2023-03-02T00:25:32.499Z,56.00
2023-03-02T00:30:36.247Z,56.00
2023-03-02T00:35:42.494Z,56.10
2023-03-02T00:40:47.379Z,56.00
2023-03-02T00:45:50.837Z,56.10
2023-03-02T00:50:55.550Z,56.10
2023-03-02T00:56:03.199Z,56.10
2023-03-02T01:01:10.541Z,56.00
2023-03-02T01:06:21.245Z,56.10
2023-03-02T01:11:25.123Z,56.10
2023-03-02T01:16:28.551Z,56.10
2023-03-02T01:21:38.738Z,56.10
2023-03-02T01:26:44.256Z,56.10
2023-03-02T01:31:48.072Z,56.10
2023-03-02T01:36:53.744Z,56.20
2023-03-02T01:41:57.544Z,56.20
2023-03-02T01:47:01.210Z,56.20
2023-03-02T01:52:06.346Z,56.00
2023-03-02T01:57:11.673Z,56.00
2023-03-02T02:02:15.326Z,56.20
2023-03-02T02:07:20.110Z,56.10
2023-03-02T02:12:24.853Z,56.10
2023-03-02T02:17:31.170Z,56.10
2023-03-02T02:22:44.729Z,56.10
2023-03-02T02:27:49.918Z,56.20
2023-03-02T02:32:55.583Z,56.20
2023-03-02T02:38:04.650Z,56.20
2023-03-02T02:43:13.926Z,56.30
2023-03-02T02:48:19.719Z,56.30
2023-03-02T02:53:28.808Z,56.20
2023-03-02T02:58:37.134Z,56.20
2023-03-02T03:03:40.974Z,56.20
2023-03-02T03:09:00.230Z,56.10
2023-03-02T03:14:14.431Z,56.20
2023-03-02T03:19:23.018Z,56.20
2023-03-02T03:24:29.323Z,56.20
2023-03-02T03:29:36.846Z,56.30
2023-03-02T03:34:45.498Z,56.30
2023-03-02T03:40:03.946Z,56.30
2023-03-02T03:45:13.127Z,56.30
2023-03-02T03:50:18.526Z,56.40
2023-03-02T03:55:24.221Z,56.40
2023-03-02T04:00:29.338Z,56.40
2023-03-02T04:05:39.139Z,56.50
2023-03-02T04:10:42.960Z,56.60
2023-03-02T04:15:48.634Z,56.60
2023-03-02T04:20:52.680Z,56.70
2023-03-02T04:25:56.154Z,56.60
2023-03-02T04:31:01.422Z,56.70
2023-03-02T04:36:08.944Z,56.70
2023-03-02T04:41:15.347Z,56.60
2023-03-02T04:46:23.912Z,56.70
2023-03-02T04:51:30.793Z,56.80
2023-03-02T04:56:34.943Z,56.90
2023-03-02T05:01:41.553Z,56.70
2023-03-02T05:06:45.200Z,56.80
2023-03-02T05:11:48.816Z,56.80
2023-03-02T05:16:54.121Z,56.80
2023-03-02T05:21:57.622Z,57.00
2023-03-02T05:27:01.022Z,57.00
2023-03-02T05:32:10.794Z,57.10
2023-03-02T05:37:14.379Z,57.30
2023-03-02T05:42:20.508Z,57.30
2023-03-02T05:47:25.387Z,57.40
2023-03-02T05:52:28.875Z,57.50
2023-03-02T05:57:32.317Z,57.50
2023-03-02T06:02:39.401Z,57.60
2023-03-02T06:07:42.795Z,57.70
2023-03-02T06:12:46.210Z,57.50
2023-03-02T06:17:53.160Z,57.50
2023-03-02T06:22:56.762Z,57.50
2023-03-02T06:28:00.265Z,57.30
2023-03-02T06:33:05.314Z,57.30
2023-03-02T06:38:08.637Z,57.20
2023-03-02T06:43:12.366Z,57.20
2023-03-02T06:48:17.518Z,57.20
2023-03-02T06:53:23.030Z,57.20
2023-03-02T06:58:26.462Z,57.20
2023-03-02T07:03:31.441Z,57.30
2023-03-02T07:08:36.131Z,64.80
2023-03-02T07:13:39.697Z,69.50
2023-03-02T07:18:44.456Z,70.80
2023-03-02T07:23:47.828Z,66.70
2023-03-02T07:28:51.365Z,61.70
2023-03-02T07:33:56.090Z,58.90
2023-03-02T07:38:59.504Z,57.20
2023-03-02T07:44:02.985Z,56.40
2023-03-02T07:49:08.001Z,55.90
2023-03-02T07:54:11.487Z,55.40
2023-03-02T07:59:15.107Z,55.20
2023-03-02T08:04:20.187Z,55.10
2023-03-02T08:09:23.470Z,55.00
2023-03-02T08:14:26.922Z,55.20
2023-03-02T08:19:31.730Z,55.40
2023-03-02T08:24:35.245Z,55.40
2023-03-02T08:29:39.172Z,55.60
2023-03-02T08:34:51.326Z,55.70
2023-03-02T08:39:54.611Z,55.60
2023-03-02T08:44:58.949Z,55.80
2023-03-02T08:50:08.417Z,56.00
2023-03-02T08:55:12.778Z,56.10
2023-03-02T09:00:18.147Z,56.20
2023-03-02T09:05:22.988Z,56.30
2023-03-02T09:10:26.677Z,56.40
2023-03-02T09:15:30.299Z,56.50
2023-03-02T09:20:35.757Z,56.60
2023-03-02T09:25:39.108Z,56.60
2023-03-02T09:30:42.430Z,56.60
2023-03-02T09:35:47.794Z,56.70
2023-03-02T09:41:16.949Z,56.90
2023-03-02T09:46:26.882Z,56.70
2023-03-02T09:51:36.890Z,56.80
2023-03-02T09:56:44.841Z,56.70
2023-03-02T10:01:53.646Z,56.60
2023-03-02T10:07:02.925Z,56.70
2023-03-02T10:12:20.355Z,56.60
2023-03-02T10:17:48.365Z,56.40
2023-03-02T10:22:58.721Z,56.00
2023-03-02T10:28:10.282Z,56.20
2023-03-02T10:33:17.188Z,56.40
2023-03-02T10:38:23.192Z,56.00
2023-03-02T10:43:31.695Z,56.00
2023-03-02T10:48:49.476Z,55.80
2023-03-02T10:54:04.931Z,56.00
2023-03-02T10:59:36.760Z,55.30
2023-03-02T11:04:40.326Z,55.20
2023-03-02T11:09:45.243Z,55.80
2023-03-02T11:14:48.584Z,55.30
2023-03-02T11:19:55.281Z,55.30
2023-03-02T11:25:05.546Z,54.90
2023-03-02T11:30:16.043Z,54.40
2023-03-02T11:35:32.293Z,54.20
2023-03-02T11:40:46.730Z,54.30
2023-03-02T11:46:01.782Z,53.90
2023-03-02T11:51:08.222Z,53.40
2023-03-02T11:56:13.409Z,53.80
2023-03-02T12:01:22.351Z,53.30
2023-03-02T12:06:37.688Z,52.60
2023-03-02T12:11:47.558Z,52.20
2023-03-02T12:16:51.337Z,51.90
2023-03-02T12:22:00.322Z,52.40
2023-03-02T12:27:08.292Z,51.60
2023-03-02T12:32:27.425Z,51.60
2023-03-02T12:37:34.431Z,51.40
2023-03-02T12:42:51.137Z,51.30
2023-03-02T12:48:03.020Z,50.30
2023-03-02T12:53:16.343Z,50.20
2023-03-02T12:58:23.107Z,50.70
2023-03-02T13:03:27.530Z,50.30
2023-03-02T13:08:32.287Z,51.20
2023-03-02T13:13:41.666Z,50.30
2023-03-02T13:18:45.889Z,49.70
2023-03-02T13:23:51.829Z,50.10
2023-03-02T13:29:08.718Z,50.00
2023-03-02T13:34:23.471Z,49.20
2023-03-02T13:39:29.155Z,49.40
2023-03-02T13:44:35.882Z,50.00
2023-03-02T13:49:39.225Z,49.90
2023-03-02T13:54:45.056Z,50.20
2023-03-02T13:59:50.199Z,50.10
2023-03-02T14:04:54.146Z,50.20
2023-03-02T14:09:57.706Z,50.40
2023-03-02T14:15:04.640Z,50.30
2023-03-02T14:20:11.211Z,50.10
2023-03-02T14:25:14.889Z,50.40
2023-03-02T14:30:22.853Z,50.30
2023-03-02T14:35:26.984Z,50.00
2023-03-02T14:40:30.387Z,50.20
2023-03-02T14:45:35.634Z,50.10
2023-03-02T14:50:41.833Z,50.00
2023-03-02T14:55:45.762Z,50.10
2023-03-02T15:00:51.031Z,50.20
2023-03-02T15:06:01.164Z,50.30
2023-03-02T15:11:04.842Z,50.30
2023-03-02T15:16:11.488Z,50.30
2023-03-02T15:21:18.251Z,50.10
2023-03-02T15:26:21.626Z,50.10
2023-03-02T15:31:28.300Z,50.30
2023-03-02T15:36:31.653Z,50.20
2023-03-02T15:41:35.375Z,50.30
2023-03-02T15:46:40.528Z,50.30
2023-03-02T15:51:43.909Z,50.20
2023-03-02T15:56:51.954Z,50.30
2023-03-02T16:01:59.691Z,50.30
2023-03-02T16:07:03.290Z,50.10
2023-03-02T16:12:07.431Z,50.30
2023-03-02T16:17:12.480Z,51.80
2023-03-02T16:22:16.103Z,50.80
2023-03-02T16:27:19.483Z,50.70
2023-03-02T16:32:24.462Z,50.50
2023-03-02T16:37:27.833Z,50.20
2023-03-02T16:42:31.944Z,50.30
2023-03-02T16:47:37.442Z,50.20
2023-03-02T16:52:41.313Z,50.00
2023-03-02T16:57:44.915Z,50.10
2023-03-02T17:02:51.413Z,50.10
2023-03-02T17:07:57.116Z,49.90
2023-03-02T17:13:00.818Z,50.20
2023-03-02T17:18:06.492Z,50.30
2023-03-02T17:23:12.812Z,50.00
2023-03-02T17:28:16.856Z,50.10
2023-03-02T17:33:24.339Z,50.10
2023-03-02T17:38:28.565Z,50.00
2023-03-02T17:43:34.208Z,50.00
2023-03-02T17:48:39.942Z,50.10
2023-03-02T17:53:45.298Z,50.00
2023-03-02T17:58:53.258Z,50.00
2023-03-02T18:03:58.447Z,50.00
2023-03-02T18:09:02.181Z,50.00
2023-03-02T18:14:06.589Z,50.00
2023-03-02T18:19:12.557Z,50.10
2023-03-02T18:24:19.505Z,50.00
2023-03-02T18:29:23.896Z,50.00
2023-03-02T18:34:34.021Z,50.10
2023-03-02T18:39:40.035Z,50.10
2023-03-02T18:44:45.875Z,50.20
2023-03-02T18:49:52.601Z,50.20
2023-03-02T18:54:58.362Z,50.50
2023-03-02T19:00:03.105Z,50.40
2023-03-02T19:05:10.418Z,50.80
2023-03-02T19:10:20.549Z,50.80
2023-03-02T19:15:26.813Z,51.20
2023-03-02T19:20:35.939Z,51.00
2023-03-02T19:25:42.704Z,50.90
2023-03-02T19:30:47.838Z,50.90
2023-03-02T19:35:54.495Z,50.80
2023-03-02T19:41:01.158Z,50.70
2023-03-02T19:46:06.425Z,50.80
2023-03-02T19:51:14.105Z,50.70
2023-03-02T19:56:21.684Z,50.70
2023-03-02T20:01:28.080Z,50.90
2023-03-02T20:06:35.877Z,50.90
2023-03-02T20:11:42.932Z,51.10
2023-03-02T20:16:48.582Z,51.20
2023-03-02T20:21:56.908Z,51.40
2023-03-02T20:27:03.286Z,51.50
2023-03-02T20:32:10.350Z,51.50
2023-03-02T20:37:21.434Z,51.60
2023-03-02T20:42:25.874Z,51.80
2023-03-02T20:47:31.725Z,51.70
2023-03-02T20:52:39.078Z,51.90
2023-03-02T20:57:44.362Z,52.00
2023-03-02T21:02:50.534Z,52.10
2023-03-02T21:07:58.867Z,52.20
2023-03-02T21:13:03.572Z,52.40
2023-03-02T21:18:07.287Z,52.30
2023-03-02T21:23:14.256Z,52.40
2023-03-02T21:28:17.910Z,52.50
2023-03-02T21:33:21.706Z,52.60
2023-03-02T21:38:28.562Z,52.60
2023-03-02T21:43:32.278Z,52.80
2023-03-02T21:48:35.873Z,52.70
2023-03-02T21:53:41.332Z,52.80
2023-03-02T21:58:44.642Z,53.00
2023-03-02T22:03:48.394Z,53.00
2023-03-02T22:08:53.936Z,53.10
2023-03-02T22:13:59.956Z,53.20
2023-03-02T22:19:06.867Z,53.30
2023-03-02T22:24:22.535Z,53.30
2023-03-02T22:29:27.556Z,53.60
2023-03-02T22:34:36.116Z,53.40
2023-03-02T22:39:42.343Z,53.50
2023-03-02T22:44:52.102Z,53.50
2023-03-02T22:49:59.052Z,53.60
2023-03-02T22:55:04.762Z,53.70
2023-03-02T23:00:35.719Z,53.80
2023-03-02T23:05:39.465Z,54.10
2023-03-02T23:10:44.916Z,53.80
2023-03-02T23:15:49.732Z,53.80
2023-03-02T23:20:53.739Z,54.00
2023-03-02T23:25:58.935Z,54.00
2023-03-02T23:31:02.345Z,54.00
2023-03-02T23:36:06.453Z,54.00
2023-03-02T23:41:12.599Z,54.00
2023-03-02T23:46:16.269Z,54.10
2023-03-02T23:51:20.001Z,54.20
2023-03-02T23:56:25.385Z,54.30
